SJX840 RCTP-RJFF
Flight info
| Callsign | SJX840 |
|---|---|
| Flight time | 1h 48m |
| Altitude | 39000 |
| Route | MOLKA1A MOLKA M750 MOMPA Y25 ISKUP |
| Aircraft | A359/H-SDE2E3GHIJ3J4J5LM1ORWXY/LB1D1 |
Departure
| Time | 2026-05-04 13:39 |
|---|---|
| Airport | Taiwan Taoyuan International Airport (RCTP) |
Arrival
| Time | 2026-05-04 15:27 |
|---|---|
| Airport | Fukuoka Airport (RJFF) |
| Time | Latitude | Longitude | Altitude | Speed | Heading |
|---|---|---|---|---|---|
| 2026-05-04 13:13 | 25.07724 | 121.22817 | 107 ft | 0 kts | 139° |
| 2026-05-04 13:32 | 25.07725 | 121.22816 | 107 ft | 1 kts | 139° |
| 2026-05-04 13:33 | 25.07736 | 121.22805 | 106 ft | 3 kts | 139° |
| 2026-05-04 13:33 | 25.07752 | 121.22791 | 107 ft | 3 kts | 139° |
| 2026-05-04 13:33 | 25.07767 | 121.22776 | 105 ft | 3 kts | 139° |
| 2026-05-04 13:33 | 25.07782 | 121.22761 | 105 ft | 3 kts | 139° |
| 2026-05-04 13:34 | 25.07795 | 121.22749 | 105 ft | 3 kts | 154° |
| 2026-05-04 13:34 | 25.07801 | 121.22743 | 105 ft | 3 kts | 195° |
| 2026-05-04 13:34 | 25.07810 | 121.22748 | 105 ft | 2 kts | 227° |
| 2026-05-04 13:34 | 25.07814 | 121.22752 | 105 ft | 0 kts | 229° |
| 2026-05-04 13:35 | 25.07794 | 121.22727 | 107 ft | 7 kts | 229° |
| 2026-05-04 13:35 | 25.07778 | 121.22658 | 107 ft | 13 kts | 287° |
| 2026-05-04 13:36 | 25.07767 | 121.22535 | 106 ft | 20 kts | 240° |
| 2026-05-04 13:36 | 25.07663 | 121.22394 | 107 ft | 26 kts | 229° |
| 2026-05-04 13:36 | 25.07561 | 121.22263 | 107 ft | 23 kts | 229° |
| 2026-05-04 13:36 | 25.07446 | 121.22122 | 107 ft | 26 kts | 229° |
| 2026-05-04 13:37 | 25.07331 | 121.21973 | 106 ft | 26 kts | 229° |
| 2026-05-04 13:37 | 25.07211 | 121.21820 | 107 ft | 21 kts | 229° |
| 2026-05-04 13:37 | 25.07199 | 121.21716 | 107 ft | 15 kts | 312° |
| 2026-05-04 13:37 | 25.07281 | 121.21636 | 108 ft | 16 kts | 320° |
| 2026-05-04 13:38 | 25.07326 | 121.21636 | 108 ft | 5 kts | 49° |
| 2026-05-04 13:38 | 25.07440 | 121.21781 | 107 ft | 57 kts | 49° |
| 2026-05-04 13:38 | 25.07836 | 121.22290 | 109 ft | 116 kts | 49° |
| 2026-05-04 13:38 | 25.08461 | 121.23088 | 368 ft | 146 kts | 49° |
| 2026-05-04 13:39 | 25.09114 | 121.23916 | 1109 ft | 141 kts | 54° |
| 2026-05-04 13:39 | 25.09789 | 121.24776 | 1495 ft | 159 kts | 56° |
| 2026-05-04 13:39 | 25.10564 | 121.25783 | 1732 ft | 185 kts | 56° |
| 2026-05-04 13:39 | 25.11435 | 121.26901 | 2163 ft | 199 kts | 55° |
| 2026-05-04 13:40 | 25.12397 | 121.28139 | 2448 ft | 225 kts | 55° |
| 2026-05-04 13:40 | 25.13445 | 121.29484 | 3058 ft | 235 kts | 54° |
| 2026-05-04 13:40 | 25.14526 | 121.30881 | 3675 ft | 245 kts | 54° |
| 2026-05-04 13:40 | 25.15655 | 121.32345 | 4238 ft | 256 kts | 54° |
| 2026-05-04 13:41 | 25.16840 | 121.33882 | 4789 ft | 269 kts | 52° |
| 2026-05-04 13:41 | 25.18080 | 121.35492 | 5340 ft | 281 kts | 51° |
| 2026-05-04 13:41 | 25.19368 | 121.37161 | 5949 ft | 290 kts | 50° |
| 2026-05-04 13:42 | 25.22066 | 121.40669 | 7299 ft | 303 kts | 48° |
| 2026-05-04 13:42 | 25.23438 | 121.42447 | 8121 ft | 306 kts | 48° |
| 2026-05-04 13:42 | 25.24525 | 121.43859 | 8743 ft | 310 kts | 48° |
| 2026-05-04 13:42 | 25.25888 | 121.45633 | 9503 ft | 314 kts | 47° |
| 2026-05-04 13:43 | 25.27267 | 121.47532 | 10219 ft | 321 kts | 53° |
| 2026-05-04 13:43 | 25.28230 | 121.49834 | 10549 ft | 342 kts | 75° |
| 2026-05-04 13:43 | 25.28776 | 121.52467 | 10858 ft | 361 kts | 79° |
| 2026-05-04 13:43 | 25.29287 | 121.55258 | 11189 ft | 378 kts | 79° |
| 2026-05-04 13:44 | 25.29823 | 121.58128 | 11749 ft | 386 kts | 78° |
| 2026-05-04 13:44 | 25.30381 | 121.61052 | 12367 ft | 392 kts | 78° |
| 2026-05-04 13:44 | 25.30952 | 121.64013 | 12989 ft | 397 kts | 78° |
| 2026-05-04 13:44 | 25.31526 | 121.66975 | 13585 ft | 402 kts | 78° |
| 2026-05-04 13:45 | 25.32116 | 121.70009 | 14177 ft | 406 kts | 78° |
| 2026-05-04 13:45 | 25.32712 | 121.73073 | 14700 ft | 411 kts | 78° |
| 2026-05-04 13:45 | 25.33317 | 121.76181 | 15227 ft | 415 kts | 78° |
| 2026-05-04 13:45 | 25.33925 | 121.79310 | 15772 ft | 419 kts | 78° |
| 2026-05-04 13:46 | 25.34541 | 121.82478 | 16303 ft | 423 kts | 78° |
| 2026-05-04 13:46 | 25.35161 | 121.85678 | 16829 ft | 427 kts | 78° |
| 2026-05-04 13:46 | 25.35787 | 121.88905 | 17350 ft | 431 kts | 78° |
| 2026-05-04 13:46 | 25.36415 | 121.92153 | 17879 ft | 435 kts | 78° |
| 2026-05-04 13:47 | 25.37050 | 121.95437 | 18398 ft | 439 kts | 78° |
| 2026-05-04 13:47 | 25.37691 | 121.98758 | 18847 ft | 443 kts | 78° |
| 2026-05-04 13:47 | 25.38335 | 122.02099 | 19301 ft | 446 kts | 78° |
| 2026-05-04 13:47 | 25.38982 | 122.05462 | 19766 ft | 450 kts | 78° |
| 2026-05-04 13:48 | 25.39636 | 122.08865 | 20238 ft | 453 kts | 78° |
| 2026-05-04 13:48 | 25.40295 | 122.12291 | 20702 ft | 457 kts | 78° |
| 2026-05-04 13:48 | 25.40955 | 122.15738 | 21169 ft | 461 kts | 78° |
| 2026-05-04 13:48 | 25.41632 | 122.19220 | 21618 ft | 464 kts | 77° |
| 2026-05-04 13:49 | 25.42547 | 122.22661 | 22070 ft | 468 kts | 70° |
| 2026-05-04 13:49 | 25.43668 | 122.26052 | 22517 ft | 472 kts | 69° |
| 2026-05-04 13:49 | 25.44825 | 122.29460 | 22953 ft | 476 kts | 69° |
| 2026-05-04 13:49 | 25.45993 | 122.32906 | 23391 ft | 480 kts | 69° |
| 2026-05-04 13:50 | 25.47164 | 122.36376 | 23806 ft | 484 kts | 69° |
| 2026-05-04 13:50 | 25.48342 | 122.39881 | 24163 ft | 488 kts | 69° |
| 2026-05-04 13:50 | 25.49515 | 122.43373 | 24527 ft | 492 kts | 69° |
| 2026-05-04 13:50 | 25.50710 | 122.46938 | 24909 ft | 496 kts | 69° |
| 2026-05-04 13:51 | 25.51927 | 122.50575 | 25294 ft | 500 kts | 69° |
| 2026-05-04 13:51 | 25.53125 | 122.54157 | 25670 ft | 504 kts | 69° |
| 2026-05-04 13:51 | 25.54343 | 122.57805 | 26101 ft | 507 kts | 69° |
| 2026-05-04 13:51 | 25.55570 | 122.61482 | 26478 ft | 511 kts | 69° |
| 2026-05-04 13:52 | 25.58047 | 122.68917 | 27275 ft | 518 kts | 69° |
| 2026-05-04 13:52 | 25.59300 | 122.72681 | 27666 ft | 522 kts | 70° |
| 2026-05-04 13:52 | 25.60557 | 122.76462 | 28050 ft | 526 kts | 70° |
| 2026-05-04 13:53 | 25.61823 | 122.80275 | 28426 ft | 529 kts | 70° |
| 2026-05-04 13:53 | 25.63096 | 122.84114 | 28792 ft | 533 kts | 70° |
| 2026-05-04 13:53 | 25.64380 | 122.87988 | 29149 ft | 537 kts | 70° |
| 2026-05-04 13:54 | 25.67016 | 122.95799 | 29827 ft | 545 kts | 69° |
| 2026-05-04 13:54 | 25.68353 | 122.99755 | 30179 ft | 549 kts | 69° |
| 2026-05-04 13:54 | 25.71037 | 123.07721 | 30788 ft | 555 kts | 69° |
| 2026-05-04 13:55 | 25.72390 | 123.11749 | 31100 ft | 558 kts | 69° |
| 2026-05-04 13:55 | 25.75105 | 123.19842 | 31700 ft | 563 kts | 69° |
| 2026-05-04 13:55 | 25.76471 | 123.23921 | 31988 ft | 566 kts | 69° |
| 2026-05-04 13:56 | 25.77841 | 123.28017 | 32262 ft | 568 kts | 68° |
| 2026-05-04 13:56 | 25.79218 | 123.32136 | 32536 ft | 571 kts | 68° |
| 2026-05-04 13:56 | 25.81987 | 123.40436 | 33073 ft | 576 kts | 68° |
| 2026-05-04 13:57 | 25.83378 | 123.44613 | 33328 ft | 578 kts | 68° |
| 2026-05-04 13:57 | 25.84771 | 123.48801 | 33583 ft | 580 kts | 68° |
| 2026-05-04 13:58 | 25.91168 | 123.59842 | 34240 ft | 565 kts | 34° |
| 2026-05-04 13:58 | 25.97737 | 123.64238 | 34821 ft | 545 kts | 17° |
| 2026-05-04 13:58 | 26.01210 | 123.66039 | 35121 ft | 544 kts | 17° |
| 2026-05-04 13:59 | 26.04641 | 123.67814 | 35415 ft | 543 kts | 17° |
| 2026-05-04 13:59 | 26.08019 | 123.69570 | 35699 ft | 543 kts | 17° |
| 2026-05-04 13:59 | 26.14840 | 123.73131 | 36263 ft | 541 kts | 17° |
| 2026-05-04 14:00 | 26.18254 | 123.74919 | 36542 ft | 541 kts | 17° |
| 2026-05-04 14:00 | 26.25053 | 123.78484 | 37053 ft | 540 kts | 17° |
| 2026-05-04 14:00 | 26.28455 | 123.80271 | 37328 ft | 539 kts | 17° |
| 2026-05-04 14:01 | 26.31845 | 123.82052 | 37599 ft | 539 kts | 17° |
| 2026-05-04 14:01 | 26.35224 | 123.83830 | 37855 ft | 538 kts | 17° |
| 2026-05-04 14:01 | 26.41986 | 123.87389 | 38357 ft | 536 kts | 17° |
| 2026-05-04 14:02 | 26.45351 | 123.89163 | 38610 ft | 535 kts | 17° |
| 2026-05-04 14:02 | 26.48724 | 123.90941 | 38837 ft | 535 kts | 17° |
| 2026-05-04 14:02 | 26.52086 | 123.92714 | 39021 ft | 535 kts | 17° |
| 2026-05-04 14:02 | 26.55448 | 123.94489 | 39142 ft | 535 kts | 17° |
| 2026-05-04 14:03 | 26.58823 | 123.96270 | 39174 ft | 537 kts | 17° |
| 2026-05-04 14:03 | 26.65412 | 124.00313 | 39184 ft | 551 kts | 31° |
| 2026-05-04 14:03 | 26.68273 | 124.03212 | 39188 ft | 560 kts | 43° |
| 2026-05-04 14:04 | 26.73406 | 124.09822 | 39176 ft | 564 kts | 45° |
| 2026-05-04 14:04 | 26.78382 | 124.16624 | 39179 ft | 566 kts | 46° |
| 2026-05-04 14:05 | 26.85862 | 124.26792 | 39182 ft | 566 kts | 45° |
| 2026-05-04 14:06 | 26.90926 | 124.33610 | 39181 ft | 566 kts | 45° |
| 2026-05-04 14:06 | 26.95961 | 124.40386 | 39181 ft | 566 kts | 45° |
| 2026-05-04 14:07 | 27.01005 | 124.47178 | 39183 ft | 567 kts | 45° |
| 2026-05-04 14:07 | 27.06016 | 124.53943 | 39173 ft | 568 kts | 45° |
| 2026-05-04 14:08 | 27.11093 | 124.60814 | 39177 ft | 568 kts | 45° |
| 2026-05-04 14:08 | 27.16138 | 124.67649 | 39180 ft | 569 kts | 45° |
| 2026-05-04 14:09 | 27.23676 | 124.77880 | 39180 ft | 569 kts | 45° |
| 2026-05-04 14:10 | 27.31248 | 124.88180 | 39184 ft | 570 kts | 45° |
| 2026-05-04 14:10 | 27.36296 | 124.95060 | 39183 ft | 571 kts | 45° |
| 2026-05-04 14:11 | 27.41350 | 125.01954 | 39182 ft | 571 kts | 45° |
| 2026-05-04 14:11 | 27.48980 | 125.12245 | 39184 ft | 571 kts | 45° |
| 2026-05-04 14:12 | 27.54064 | 125.19098 | 39183 ft | 572 kts | 45° |
| 2026-05-04 14:13 | 27.61713 | 125.29452 | 39183 ft | 572 kts | 45° |
| 2026-05-04 14:13 | 27.66803 | 125.36361 | 39184 ft | 573 kts | 45° |
| 2026-05-04 14:14 | 27.71894 | 125.43282 | 39182 ft | 573 kts | 45° |
| 2026-05-04 14:14 | 27.79536 | 125.53690 | 39182 ft | 574 kts | 45° |
| 2026-05-04 14:15 | 27.89713 | 125.67591 | 39184 ft | 575 kts | 45° |
| 2026-05-04 14:16 | 27.97352 | 125.78054 | 39183 ft | 575 kts | 45° |
| 2026-05-04 14:17 | 28.04987 | 125.88539 | 39182 ft | 576 kts | 45° |
| 2026-05-04 14:18 | 28.12621 | 125.99048 | 39183 ft | 576 kts | 45° |
| 2026-05-04 14:19 | 28.22802 | 126.13102 | 39179 ft | 577 kts | 45° |
| 2026-05-04 14:19 | 28.27887 | 126.20140 | 39185 ft | 577 kts | 45° |
| 2026-05-04 14:20 | 28.32973 | 126.27191 | 39180 ft | 578 kts | 45° |
| 2026-05-04 14:20 | 28.38056 | 126.34249 | 39180 ft | 578 kts | 45° |
| 2026-05-04 14:21 | 28.44828 | 126.43670 | 39176 ft | 578 kts | 45° |
| 2026-05-04 14:21 | 28.49918 | 126.50766 | 39187 ft | 579 kts | 45° |
| 2026-05-04 14:22 | 28.55000 | 126.57862 | 39179 ft | 579 kts | 45° |
| 2026-05-04 14:22 | 28.60089 | 126.64980 | 39182 ft | 580 kts | 45° |
| 2026-05-04 14:23 | 28.67730 | 126.75692 | 39179 ft | 581 kts | 45° |
| 2026-05-04 14:24 | 28.72811 | 126.82829 | 39181 ft | 582 kts | 45° |
| 2026-05-04 14:24 | 28.77901 | 126.89992 | 39182 ft | 582 kts | 46° |
| 2026-05-04 14:25 | 28.82995 | 126.97171 | 39179 ft | 582 kts | 46° |
| 2026-05-04 14:25 | 28.90631 | 127.07958 | 39178 ft | 583 kts | 46° |
| 2026-05-04 14:26 | 28.95714 | 127.15154 | 39178 ft | 583 kts | 46° |
| 2026-05-04 14:26 | 29.00817 | 127.22391 | 39178 ft | 584 kts | 46° |
| 2026-05-04 14:27 | 29.05896 | 127.29606 | 39176 ft | 584 kts | 46° |
| 2026-05-04 14:27 | 29.10982 | 127.36844 | 39174 ft | 584 kts | 46° |
| 2026-05-04 14:28 | 29.16069 | 127.44094 | 39175 ft | 584 kts | 46° |
| 2026-05-04 14:28 | 29.21163 | 127.51368 | 39176 ft | 585 kts | 46° |
| 2026-05-04 14:29 | 29.31334 | 127.65932 | 39172 ft | 586 kts | 46° |
| 2026-05-04 14:30 | 29.36421 | 127.73236 | 39174 ft | 586 kts | 46° |
| 2026-05-04 14:31 | 29.44045 | 127.84206 | 39172 ft | 587 kts | 46° |
| 2026-05-04 14:32 | 29.54203 | 127.98871 | 39171 ft | 587 kts | 46° |
| 2026-05-04 14:32 | 29.59291 | 128.06228 | 39176 ft | 588 kts | 46° |
| 2026-05-04 14:33 | 29.64343 | 128.13542 | 39179 ft | 588 kts | 46° |
| 2026-05-04 14:33 | 29.69459 | 128.20962 | 39175 ft | 588 kts | 46° |
| 2026-05-04 14:34 | 29.74533 | 128.28337 | 39170 ft | 589 kts | 47° |
| 2026-05-04 14:34 | 29.79584 | 128.35693 | 39170 ft | 589 kts | 47° |
| 2026-05-04 14:35 | 29.84662 | 128.43101 | 39169 ft | 589 kts | 47° |
| 2026-05-04 14:35 | 29.89741 | 128.50525 | 39170 ft | 590 kts | 47° |
| 2026-05-04 14:36 | 29.94810 | 128.57947 | 39172 ft | 590 kts | 47° |
| 2026-05-04 14:36 | 29.99890 | 128.65398 | 39165 ft | 590 kts | 47° |
| 2026-05-04 14:37 | 30.04962 | 128.72852 | 39163 ft | 591 kts | 47° |
| 2026-05-04 14:37 | 30.10032 | 128.80317 | 39165 ft | 591 kts | 47° |
| 2026-05-04 14:38 | 30.15098 | 128.87791 | 39161 ft | 591 kts | 47° |
| 2026-05-04 14:38 | 30.20173 | 128.95291 | 39162 ft | 592 kts | 47° |
| 2026-05-04 14:39 | 30.25233 | 129.02788 | 39161 ft | 592 kts | 47° |
| 2026-05-04 14:39 | 30.30293 | 129.10298 | 39164 ft | 592 kts | 47° |
| 2026-05-04 14:40 | 30.37886 | 129.21582 | 39160 ft | 593 kts | 47° |
| 2026-05-04 14:40 | 30.42941 | 129.29114 | 39162 ft | 593 kts | 47° |
| 2026-05-04 14:41 | 30.48003 | 129.36676 | 39159 ft | 593 kts | 47° |
| 2026-05-04 14:42 | 30.58117 | 129.51824 | 39160 ft | 593 kts | 47° |
| 2026-05-04 14:42 | 30.63127 | 129.59348 | 39160 ft | 594 kts | 47° |
| 2026-05-04 14:43 | 30.68186 | 129.66961 | 39164 ft | 594 kts | 48° |
| 2026-05-04 14:43 | 30.73231 | 129.74567 | 39158 ft | 594 kts | 48° |
| 2026-05-04 14:44 | 30.78268 | 129.82175 | 39155 ft | 594 kts | 48° |
| 2026-05-04 14:44 | 30.80997 | 129.85760 | 39163 ft | 586 kts | 37° |
| 2026-05-04 14:44 | 30.84127 | 129.88696 | 39164 ft | 572 kts | 24° |
| 2026-05-04 14:45 | 30.87572 | 129.90853 | 39155 ft | 554 kts | 12° |
| 2026-05-04 14:45 | 30.91181 | 129.92169 | 39158 ft | 534 kts | 359° |
| 2026-05-04 14:45 | 30.98436 | 129.93262 | 39158 ft | 524 kts | 353° |
| 2026-05-04 14:46 | 31.12764 | 129.94707 | 39159 ft | 525 kts | 353° |
| 2026-05-04 14:47 | 31.20046 | 129.95489 | 39154 ft | 526 kts | 353° |
| 2026-05-04 14:47 | 31.27338 | 129.96297 | 39156 ft | 526 kts | 353° |
| 2026-05-04 14:48 | 31.34632 | 129.97036 | 39157 ft | 524 kts | 352° |
| 2026-05-04 14:48 | 31.41903 | 129.97571 | 39153 ft | 523 kts | 351° |
| 2026-05-04 14:49 | 31.49166 | 129.98093 | 39156 ft | 523 kts | 351° |
| 2026-05-04 14:49 | 31.56449 | 129.98651 | 39154 ft | 524 kts | 352° |
| 2026-05-04 14:50 | 31.63722 | 129.99228 | 39153 ft | 524 kts | 352° |
| 2026-05-04 14:50 | 31.71002 | 129.99811 | 39151 ft | 524 kts | 352° |
| 2026-05-04 14:51 | 31.78279 | 130.00392 | 39151 ft | 524 kts | 352° |
| 2026-05-04 14:51 | 31.85506 | 130.00970 | 39152 ft | 524 kts | 352° |
| 2026-05-04 14:52 | 31.92701 | 130.01562 | 38653 ft | 506 kts | 352° |
| 2026-05-04 14:52 | 31.96192 | 130.01856 | 37436 ft | 503 kts | 352° |
| 2026-05-04 14:52 | 31.99706 | 130.02129 | 35988 ft | 513 kts | 352° |
| 2026-05-04 14:53 | 32.03296 | 130.02391 | 35145 ft | 519 kts | 353° |
| 2026-05-04 14:53 | 32.06891 | 130.02676 | 34708 ft | 515 kts | 353° |
| 2026-05-04 14:53 | 32.10451 | 130.02967 | 34285 ft | 511 kts | 353° |
| 2026-05-04 14:53 | 32.13988 | 130.03257 | 33796 ft | 508 kts | 353° |
| 2026-05-04 14:54 | 32.17499 | 130.03544 | 33296 ft | 504 kts | 353° |
| 2026-05-04 14:54 | 32.20989 | 130.03828 | 32806 ft | 501 kts | 353° |
| 2026-05-04 14:54 | 32.24451 | 130.04108 | 32339 ft | 497 kts | 353° |
| 2026-05-04 14:54 | 32.27895 | 130.04386 | 31872 ft | 494 kts | 354° |
| 2026-05-04 14:55 | 32.31311 | 130.04661 | 31411 ft | 491 kts | 354° |
| 2026-05-04 14:55 | 32.34712 | 130.04935 | 30990 ft | 488 kts | 354° |
| 2026-05-04 14:55 | 32.38082 | 130.05209 | 30527 ft | 485 kts | 354° |
| 2026-05-04 14:55 | 32.41438 | 130.05480 | 30097 ft | 482 kts | 354° |
| 2026-05-04 14:56 | 32.44764 | 130.05750 | 29643 ft | 478 kts | 354° |
| 2026-05-04 14:56 | 32.48071 | 130.06020 | 29200 ft | 473 kts | 354° |
| 2026-05-04 14:56 | 32.51339 | 130.06289 | 28768 ft | 469 kts | 354° |
| 2026-05-04 14:56 | 32.54578 | 130.06554 | 28337 ft | 465 kts | 354° |
| 2026-05-04 14:57 | 32.57790 | 130.06813 | 27915 ft | 460 kts | 354° |
| 2026-05-04 14:57 | 32.60920 | 130.06720 | 27483 ft | 441 kts | 342° |
| 2026-05-04 14:57 | 32.63925 | 130.06166 | 27067 ft | 433 kts | 340° |
| 2026-05-04 14:57 | 32.66862 | 130.05498 | 26643 ft | 428 kts | 338° |
| 2026-05-04 14:58 | 32.69759 | 130.04771 | 26227 ft | 423 kts | 338° |
| 2026-05-04 14:58 | 32.72620 | 130.04023 | 25827 ft | 419 kts | 338° |
| 2026-05-04 14:58 | 32.75452 | 130.03275 | 25432 ft | 415 kts | 338° |
| 2026-05-04 14:58 | 32.78263 | 130.02537 | 25029 ft | 412 kts | 338° |
| 2026-05-04 14:59 | 32.81056 | 130.01811 | 24638 ft | 409 kts | 339° |
| 2026-05-04 14:59 | 32.83824 | 130.01103 | 24254 ft | 405 kts | 339° |
| 2026-05-04 14:59 | 32.89285 | 129.99707 | 23396 ft | 394 kts | 340° |
| 2026-05-04 15:00 | 32.91943 | 129.99030 | 22415 ft | 389 kts | 340° |
| 2026-05-04 15:00 | 32.94572 | 129.98351 | 21752 ft | 392 kts | 341° |
| 2026-05-04 15:00 | 32.97220 | 129.97670 | 21394 ft | 386 kts | 341° |
| 2026-05-04 15:01 | 33.02427 | 129.96339 | 20562 ft | 379 kts | 342° |
| 2026-05-04 15:01 | 33.04993 | 129.95682 | 20146 ft | 376 kts | 342° |
| 2026-05-04 15:01 | 33.07539 | 129.95031 | 19716 ft | 373 kts | 342° |
| 2026-05-04 15:01 | 33.10068 | 129.94384 | 19275 ft | 370 kts | 343° |
| 2026-05-04 15:02 | 33.12574 | 129.93745 | 18878 ft | 367 kts | 343° |
| 2026-05-04 15:02 | 33.15059 | 129.93109 | 18466 ft | 363 kts | 343° |
| 2026-05-04 15:02 | 33.17523 | 129.92477 | 18001 ft | 360 kts | 343° |
| 2026-05-04 15:02 | 33.19962 | 129.91854 | 17541 ft | 357 kts | 343° |
| 2026-05-04 15:03 | 33.22385 | 129.91232 | 17079 ft | 354 kts | 343° |
| 2026-05-04 15:03 | 33.24781 | 129.90616 | 16638 ft | 351 kts | 343° |
| 2026-05-04 15:03 | 33.27158 | 129.90003 | 16175 ft | 349 kts | 343° |
| 2026-05-04 15:03 | 33.29521 | 129.89392 | 15735 ft | 346 kts | 344° |
| 2026-05-04 15:04 | 33.31865 | 129.88788 | 15297 ft | 343 kts | 344° |
| 2026-05-04 15:04 | 33.34195 | 129.88187 | 14875 ft | 341 kts | 344° |
| 2026-05-04 15:04 | 33.36502 | 129.87592 | 14456 ft | 338 kts | 344° |
| 2026-05-04 15:04 | 33.38793 | 129.87001 | 14031 ft | 336 kts | 345° |
| 2026-05-04 15:05 | 33.41068 | 129.86414 | 13562 ft | 333 kts | 345° |
| 2026-05-04 15:05 | 33.43325 | 129.85833 | 13065 ft | 331 kts | 345° |
| 2026-05-04 15:05 | 33.45572 | 129.85255 | 12593 ft | 329 kts | 345° |
| 2026-05-04 15:05 | 33.47841 | 129.84908 | 12103 ft | 331 kts | 357° |
| 2026-05-04 15:06 | 33.50116 | 129.85335 | 11651 ft | 333 kts | 11° |
| 2026-05-04 15:06 | 33.52331 | 129.86113 | 11216 ft | 331 kts | 13° |
| 2026-05-04 15:06 | 33.54522 | 129.86919 | 10777 ft | 328 kts | 13° |
| 2026-05-04 15:07 | 33.58852 | 129.88492 | 9909 ft | 322 kts | 13° |
| 2026-05-04 15:07 | 33.60970 | 129.89253 | 9649 ft | 312 kts | 13° |
| 2026-05-04 15:07 | 33.63007 | 129.89984 | 9476 ft | 300 kts | 13° |
| 2026-05-04 15:07 | 33.64974 | 129.90688 | 9300 ft | 289 kts | 13° |
| 2026-05-04 15:08 | 33.66876 | 129.91369 | 9028 ft | 283 kts | 13° |
| 2026-05-04 15:08 | 33.68753 | 129.92039 | 8660 ft | 280 kts | 13° |
| 2026-05-04 15:08 | 33.70615 | 129.92702 | 8285 ft | 278 kts | 14° |
| 2026-05-04 15:08 | 33.72435 | 129.93352 | 8028 ft | 275 kts | 14° |
| 2026-05-04 15:09 | 33.74273 | 129.94011 | 7977 ft | 276 kts | 14° |
| 2026-05-04 15:09 | 33.76140 | 129.94681 | 7977 ft | 276 kts | 14° |
| 2026-05-04 15:09 | 33.77970 | 129.95244 | 7977 ft | 275 kts | 7° |
| 2026-05-04 15:10 | 33.81792 | 129.95636 | 7979 ft | 274 kts | 1° |
| 2026-05-04 15:10 | 33.83690 | 129.95780 | 7976 ft | 271 kts | 1° |
| 2026-05-04 15:10 | 33.87225 | 129.96100 | 7982 ft | 240 kts | 6° |
| 2026-05-04 15:11 | 33.88778 | 129.96695 | 7991 ft | 233 kts | 21° |
| 2026-05-04 15:11 | 33.90236 | 129.97537 | 7985 ft | 233 kts | 23° |
| 2026-05-04 15:11 | 33.91687 | 129.98411 | 7980 ft | 233 kts | 23° |
| 2026-05-04 15:11 | 33.93141 | 129.99287 | 7982 ft | 234 kts | 23° |
| 2026-05-04 15:12 | 33.94597 | 130.00160 | 7985 ft | 234 kts | 23° |
| 2026-05-04 15:12 | 33.96036 | 130.01019 | 7983 ft | 234 kts | 23° |
| 2026-05-04 15:12 | 33.97503 | 130.01917 | 7984 ft | 234 kts | 26° |
| 2026-05-04 15:12 | 33.98793 | 130.03136 | 7995 ft | 238 kts | 43° |
| 2026-05-04 15:13 | 33.99889 | 130.04595 | 7989 ft | 239 kts | 46° |
| 2026-05-04 15:13 | 34.00973 | 130.06112 | 7993 ft | 239 kts | 46° |
| 2026-05-04 15:13 | 34.02058 | 130.07631 | 7987 ft | 239 kts | 46° |
| 2026-05-04 15:13 | 34.03145 | 130.09144 | 7993 ft | 239 kts | 46° |
| 2026-05-04 15:14 | 34.04235 | 130.10653 | 7986 ft | 239 kts | 45° |
| 2026-05-04 15:14 | 34.05313 | 130.12175 | 7986 ft | 239 kts | 48° |
| 2026-05-04 15:14 | 34.06125 | 130.13937 | 7991 ft | 242 kts | 66° |
| 2026-05-04 15:14 | 34.06691 | 130.15883 | 7989 ft | 243 kts | 69° |
| 2026-05-04 15:15 | 34.07207 | 130.17797 | 7986 ft | 243 kts | 69° |
| 2026-05-04 15:15 | 34.07733 | 130.19739 | 7983 ft | 243 kts | 69° |
| 2026-05-04 15:15 | 34.08092 | 130.21047 | 7982 ft | 243 kts | 69° |
| 2026-05-04 15:16 | 34.09298 | 130.25550 | 7976 ft | 244 kts | 75° |
| 2026-05-04 15:16 | 34.09421 | 130.26928 | 7988 ft | 246 kts | 88° |
| 2026-05-04 15:16 | 34.09206 | 130.31045 | 7986 ft | 246 kts | 92° |
| 2026-05-04 15:17 | 34.09070 | 130.33105 | 7985 ft | 246 kts | 92° |
| 2026-05-04 15:17 | 34.08493 | 130.37164 | 7978 ft | 249 kts | 117° |
| 2026-05-04 15:17 | 34.07313 | 130.38647 | 7982 ft | 247 kts | 152° |
| 2026-05-04 15:18 | 34.05680 | 130.39147 | 7984 ft | 243 kts | 185° |
| 2026-05-04 15:18 | 34.04073 | 130.38684 | 7821 ft | 232 kts | 203° |
| 2026-05-04 15:18 | 34.02537 | 130.38063 | 7257 ft | 235 kts | 200° |
| 2026-05-04 15:19 | 33.99396 | 130.36945 | 6386 ft | 237 kts | 197° |
| 2026-05-04 15:19 | 33.97816 | 130.36412 | 6131 ft | 234 kts | 196° |
| 2026-05-04 15:19 | 33.94690 | 130.35374 | 5566 ft | 232 kts | 196° |
| 2026-05-04 15:20 | 33.93137 | 130.34862 | 5276 ft | 231 kts | 196° |
| 2026-05-04 15:20 | 33.91593 | 130.34354 | 4996 ft | 229 kts | 196° |
| 2026-05-04 15:20 | 33.90044 | 130.33910 | 4678 ft | 230 kts | 188° |
| 2026-05-04 15:20 | 33.88456 | 130.33689 | 4375 ft | 230 kts | 187° |
| 2026-05-04 15:21 | 33.86864 | 130.33485 | 4051 ft | 230 kts | 187° |
| 2026-05-04 15:21 | 33.85271 | 130.33278 | 3762 ft | 230 kts | 187° |
| 2026-05-04 15:21 | 33.82113 | 130.32861 | 3188 ft | 227 kts | 188° |
| 2026-05-04 15:22 | 33.80552 | 130.32644 | 3132 ft | 227 kts | 188° |
| 2026-05-04 15:22 | 33.78984 | 130.32426 | 3113 ft | 227 kts | 188° |
| 2026-05-04 15:22 | 33.75917 | 130.33057 | 3111 ft | 229 kts | 150° |
| 2026-05-04 15:23 | 33.74597 | 130.34080 | 3108 ft | 221 kts | 147° |
| 2026-05-04 15:23 | 33.73294 | 130.35010 | 3100 ft | 217 kts | 153° |
| 2026-05-04 15:23 | 33.71974 | 130.35876 | 2875 ft | 215 kts | 151° |
| 2026-05-04 15:23 | 33.70711 | 130.36757 | 2594 ft | 205 kts | 151° |
| 2026-05-04 15:24 | 33.68377 | 130.38361 | 2031 ft | 185 kts | 152° |
| 2026-05-04 15:24 | 33.66218 | 130.39843 | 1537 ft | 175 kts | 153° |
| 2026-05-04 15:25 | 33.65190 | 130.40550 | 1305 ft | 166 kts | 153° |
| 2026-05-04 15:25 | 33.64219 | 130.41215 | 1092 ft | 155 kts | 152° |
| 2026-05-04 15:25 | 33.63319 | 130.41833 | 881 ft | 144 kts | 152° |
| 2026-05-04 15:26 | 33.61653 | 130.42976 | 506 ft | 135 kts | 151° |
| 2026-05-04 15:26 | 33.60836 | 130.43535 | 329 ft | 136 kts | 150° |
| 2026-05-04 15:26 | 33.59199 | 130.44661 | 34 ft | 131 kts | 150° |
| 2026-05-04 15:27 | 33.58682 | 130.45009 | 39 ft | 27 kts | 151° |